This is the latest recevied weather packets stored in our database for station/object HB9DOZ-13. If no packets are shown the sender has not sent any weather packets the latest 10 day(s).
| Time | Temp. | Humidity | Pressure | Rain* | Wind** | Luminosity | Snow |
|---|---|---|---|---|---|---|---|
| 1777896317 | 18.89° C | 58% | - | 0 mm | - | - | - |
| 1777895718 | 18.89° C | 57% | - | 0 mm | - | - | - |
| 1777893356 | 19.44° C | 57% | - | 0 mm | - | - | - |
| 1777889116 | 17.78° C | 66% | - | 0 mm | - | - | - |
| 1777888516 | 17.22° C | 70% | - | 0 mm | - | - | - |
| 1777885515 | 15.56° C | 72% | - | 0 mm | - | - | - |
| 1777882517 | 14.44° C | 76% | - | 0 mm | - | - | - |
| 1777880716 | 13.89° C | 82% | - | 0 mm | - | - | - |
| 1777879517 | 13.33° C | 82% | - | 0 mm | - | - | - |
| 1777878918 | 13.33° C | 82% | - | 0 mm | - | - | - |
| 1777877115 | 12.78° C | 86% | - | 0 mm | - | - | - |
| 1777874117 | 11.67° C | 83% | - | 0 mm | - | - | - |
| 1777872935 | 11.11° C | 83% | - | 0 mm | - | - | - |
| 1777869315 | 11.11° C | 83% | - | 0 mm | - | - | - |
| 1777866917 | 11.67° C | 80% | - | 0 mm | - | - | - |
| 1777865717 | 11.11° C | 81% | - | 0 mm | - | - | - |
| 1777862117 | 11.11° C | 78% | - | 0 mm | - | - | - |
| 1777855516 | 11.67° C | 76% | - | 0 mm | - | - | - |
| 1777852517 | 11.67° C | 76% | - | 0 mm | - | - | - |
| 1777843516 | 13.33° C | 73% | - | 0 mm | - | - | - |
| 1777841117 | 13.33° C | 73% | - | 0 mm | - | - | - |
| 1777833316 | 15.56° C | 66% | - | 0 mm | - | - | - |
| 1777830935 | 16.67° C | 59% | - | 0 mm | - | - | - |
| 1777829136 | 17.22° C | 55% | - | 0 mm | - | - | - |
| 1777827917 | 17.22° C | 55% | - | 0 mm | - | - | - |
* Rain latest hour (hover to see other rain measurements)
** Current wind speed in m/s (hover to see current wind gust speed)